createdAt,value
2022-08-17T00:00:49.437Z,22.07
2022-08-17T00:03:28.588Z,22.00
2022-08-17T00:06:08.617Z,21.50
2022-08-17T00:08:49.234Z,21.80
2022-08-17T00:11:22.824Z,21.00
2022-08-17T00:14:00.935Z,23.83
2022-08-17T00:16:56.677Z,23.53
2022-08-17T00:19:29.942Z,23.17
2022-08-17T00:22:34.522Z,22.50
2022-08-17T00:24:54.962Z,24.90
2022-08-17T00:27:26.926Z,23.23
2022-08-17T00:29:59.003Z,24.13
2022-08-17T00:33:11.926Z,24.47
2022-08-17T00:35:39.247Z,23.60
2022-08-17T00:38:12.199Z,24.37
2022-08-17T00:40:50.517Z,25.33
2022-08-17T00:43:28.821Z,25.13
2022-08-17T00:46:06.614Z,24.57
2022-08-17T00:48:39.096Z,26.20
2022-08-17T00:51:20.150Z,25.90
2022-08-17T00:54:18.871Z,25.30
2022-08-17T00:57:04.396Z,23.70
2022-08-17T00:59:41.705Z,23.63
2022-08-17T01:02:15.335Z,25.03
2022-08-17T01:04:49.352Z,23.07
2022-08-17T01:07:23.425Z,24.53
2022-08-17T01:09:55.488Z,26.10
2022-08-17T01:12:28.601Z,24.97
2022-08-17T01:15:00.567Z,25.43
2022-08-17T01:17:33.602Z,25.47
2022-08-17T01:20:05.867Z,25.80
2022-08-17T01:22:38.030Z,25.57
2022-08-17T01:25:11.576Z,25.83
2022-08-17T01:27:43.899Z,25.50
2022-08-17T01:30:57.829Z,27.27
2022-08-17T01:33:11.441Z,25.60
2022-08-17T01:35:43.459Z,28.10
2022-08-17T01:38:17.144Z,29.23
2022-08-17T01:41:07.018Z,27.00
2022-08-17T01:43:53.783Z,30.97
2022-08-17T01:46:31.045Z,30.20
2022-08-17T01:49:08.294Z,27.70
2022-08-17T01:51:41.463Z,25.57
2022-08-17T01:54:17.230Z,29.40
2022-08-17T01:56:51.335Z,29.17
2022-08-17T01:59:23.293Z,28.50
2022-08-17T02:01:55.291Z,28.97
2022-08-17T02:04:27.620Z,29.80
2022-08-17T02:06:59.754Z,28.23
2022-08-17T02:09:32.654Z,26.97
2022-08-17T02:12:39.249Z,28.70
2022-08-17T02:14:57.599Z,29.07
2022-08-17T02:17:29.495Z,29.20
2022-08-17T02:20:01.973Z,30.80
2022-08-17T02:22:36.230Z,29.20
2022-08-17T02:25:10.147Z,29.10
2022-08-17T02:27:42.509Z,28.97
2022-08-17T02:31:02.094Z,27.93
2022-08-17T02:33:11.553Z,30.73
2022-08-17T02:35:53.760Z,29.13
2022-08-17T02:38:25.977Z,29.60
2022-08-17T02:40:59.185Z,29.40
2022-08-17T02:43:31.678Z,28.17
2022-08-17T02:46:03.928Z,28.10
2022-08-17T02:48:35.960Z,28.50
2022-08-17T02:51:09.125Z,29.10
2022-08-17T02:53:41.253Z,28.40
2022-08-17T02:56:13.374Z,29.33
2022-08-17T02:58:46.373Z,28.90
2022-08-17T03:01:18.548Z,28.47
2022-08-17T03:03:50.550Z,28.43
2022-08-17T03:06:22.823Z,28.50
2022-08-17T03:08:54.767Z,30.40
2022-08-17T03:11:26.748Z,29.13
2022-08-17T03:13:59.175Z,29.40
2022-08-17T03:16:31.255Z,29.87
2022-08-17T03:19:03.781Z,30.10
2022-08-17T03:21:35.891Z,29.73
2022-08-17T03:24:09.206Z,28.27
2022-08-17T03:26:41.174Z,29.67
2022-08-17T03:29:18.865Z,28.17
2022-08-17T03:31:50.771Z,28.40
2022-08-17T03:34:22.769Z,31.70
2022-08-17T03:36:55.032Z,29.10
2022-08-17T03:39:27.066Z,29.33
2022-08-17T03:42:31.432Z,32.33
2022-08-17T03:45:03.267Z,31.40
2022-08-17T03:47:54.071Z,32.63
2022-08-17T03:50:55.490Z,33.10
2022-08-17T03:53:45.811Z,32.97
2022-08-17T03:56:36.591Z,31.73
2022-08-17T03:59:21.190Z,31.83
2022-08-17T04:01:56.010Z,32.17
2022-08-17T04:04:28.055Z,31.40
2022-08-17T04:07:00.094Z,32.43
2022-08-17T04:09:31.980Z,31.33
2022-08-17T04:12:05.141Z,31.63
2022-08-17T04:14:53.464Z,31.47
2022-08-17T04:17:28.305Z,33.10
2022-08-17T04:20:00.290Z,30.30
2022-08-17T04:22:34.386Z,33.03
2022-08-17T04:25:06.366Z,31.03
2022-08-17T04:27:38.354Z,33.67
2022-08-17T04:30:11.764Z,32.40
2022-08-17T04:33:04.698Z,30.90
2022-08-17T04:35:43.944Z,32.03
2022-08-17T04:38:25.911Z,33.40
2022-08-17T04:41:17.746Z,29.87
2022-08-17T04:43:54.912Z,28.27
2022-08-17T04:46:35.366Z,33.07
2022-08-17T04:49:10.518Z,32.13
2022-08-17T04:51:54.705Z,30.70
2022-08-17T04:54:28.987Z,32.23
2022-08-17T04:57:01.111Z,32.00
2022-08-17T04:59:33.064Z,31.17
2022-08-17T05:02:05.116Z,31.23
2022-08-17T05:04:37.141Z,32.67
2022-08-17T05:07:09.151Z,35.00
2022-08-17T05:09:41.103Z,30.37
2022-08-17T05:12:13.276Z,32.40
2022-08-17T05:14:45.386Z,32.10
2022-08-17T05:17:17.568Z,31.40
2022-08-17T05:19:51.941Z,33.67
2022-08-17T05:22:24.194Z,30.90
2022-08-17T05:24:56.403Z,33.33
2022-08-17T05:27:35.314Z,32.53
2022-08-17T05:30:08.496Z,31.77
2022-08-17T05:32:40.605Z,33.30
2022-08-17T05:35:12.654Z,32.70
2022-08-17T05:37:45.167Z,33.70
2022-08-17T05:40:17.791Z,30.83
2022-08-17T05:42:49.910Z,31.80
2022-08-17T05:45:39.988Z,31.33
2022-08-17T05:48:14.107Z,30.63
2022-08-17T05:51:06.942Z,32.70
2022-08-17T05:53:58.693Z,31.87
2022-08-17T05:56:50.912Z,31.63
2022-08-17T05:59:42.732Z,31.23
2022-08-17T06:02:29.578Z,31.83
2022-08-17T06:05:10.996Z,31.03
2022-08-17T06:08:00.856Z,30.07
2022-08-17T06:10:42.921Z,29.80
2022-08-17T06:13:32.787Z,29.20
2022-08-17T06:16:28.155Z,28.73
2022-08-17T06:19:12.297Z,32.10
2022-08-17T06:21:48.100Z,30.80
2022-08-17T06:24:43.104Z,29.07
2022-08-17T06:27:33.217Z,26.00
2022-08-17T06:30:13.163Z,27.20
2022-08-17T06:32:48.563Z,27.80
2022-08-17T06:35:34.145Z,27.10
2022-08-17T06:38:37.601Z,26.77
2022-08-17T06:41:11.173Z,26.33
2022-08-17T06:44:11.589Z,26.67
2022-08-17T06:47:09.065Z,26.13
2022-08-17T06:49:55.281Z,25.23
2022-08-17T06:52:45.763Z,24.50
2022-08-17T06:55:26.434Z,25.47
2022-08-17T06:58:02.123Z,24.63
2022-08-17T07:00:49.360Z,27.33
2022-08-17T07:03:27.325Z,31.13
2022-08-17T07:06:05.765Z,25.00
2022-08-17T07:09:04.510Z,23.70
2022-08-17T07:11:54.254Z,25.97
2022-08-17T07:14:48.438Z,23.03
2022-08-17T07:17:22.529Z,24.47
2022-08-17T07:20:23.161Z,23.20
2022-08-17T07:23:24.414Z,22.73
2022-08-17T07:26:08.038Z,22.90
2022-08-17T07:28:41.182Z,21.07
2022-08-17T07:31:17.117Z,22.13
2022-08-17T07:34:04.574Z,20.70
2022-08-17T07:36:36.690Z,21.53
2022-08-17T07:39:09.759Z,20.43
2022-08-17T07:41:57.430Z,18.43
2022-08-17T07:44:30.893Z,18.40
2022-08-17T07:47:21.730Z,19.63
2022-08-17T07:49:53.807Z,16.97
2022-08-17T07:52:50.966Z,17.13
2022-08-17T07:55:35.392Z,17.60
2022-08-17T07:58:07.753Z,19.17
2022-08-17T08:00:39.927Z,18.10
2022-08-17T08:03:23.707Z,15.70
2022-08-17T08:06:02.239Z,17.00
2022-08-17T08:08:42.429Z,15.13
2022-08-17T08:11:16.563Z,14.87
2022-08-17T08:13:52.745Z,15.30
2022-08-17T08:16:29.254Z,15.77
2022-08-17T08:19:02.075Z,15.20
2022-08-17T08:21:50.582Z,15.10
2022-08-17T08:24:48.062Z,14.60
2022-08-17T08:27:49.660Z,14.03
2022-08-17T08:30:22.512Z,14.53
2022-08-17T08:33:27.200Z,13.47
2022-08-17T08:36:10.146Z,11.53
2022-08-17T08:38:47.457Z,11.00
2022-08-17T08:41:44.908Z,10.90
2022-08-17T08:45:00.719Z,12.77
2022-08-17T08:47:55.297Z,11.77
2022-08-17T08:50:42.967Z,11.40
2022-08-17T08:53:43.767Z,11.20
2022-08-17T08:56:28.377Z,11.40
2022-08-17T08:59:04.355Z,11.17
2022-08-17T09:01:44.193Z,12.93
2022-08-17T09:04:44.965Z,11.90
2022-08-17T09:07:57.367Z,11.40
2022-08-17T09:10:35.317Z,10.87
2022-08-17T09:13:16.944Z,11.50
2022-08-17T09:15:57.316Z,12.17
2022-08-17T09:19:03.367Z,10.60
2022-08-17T09:21:48.493Z,10.80
2022-08-17T09:24:25.934Z,12.80
2022-08-17T09:27:03.153Z,12.50
2022-08-17T09:29:40.412Z,11.63
2022-08-17T09:32:21.460Z,11.30
2022-08-17T09:35:00.249Z,11.90
2022-08-17T09:37:41.889Z,13.80
2022-08-17T09:40:39.814Z,13.07
2022-08-17T09:43:35.856Z,12.10
2022-08-17T09:46:16.841Z,14.30
2022-08-17T09:48:55.428Z,13.10
2022-08-17T09:51:40.552Z,12.00
2022-08-17T09:54:44.667Z,13.23
2022-08-17T09:57:47.514Z,14.40
2022-08-17T10:00:27.909Z,12.30
2022-08-17T10:03:25.401Z,15.43
2022-08-17T10:06:14.459Z,13.90
2022-08-17T10:08:55.410Z,12.73
2022-08-17T10:12:01.281Z,12.07
2022-08-17T10:14:55.898Z,14.40
2022-08-17T10:17:53.417Z,14.33
2022-08-17T10:20:33.256Z,13.93
2022-08-17T10:23:35.140Z,11.83
2022-08-17T10:26:21.240Z,13.50
2022-08-17T10:29:03.912Z,13.60
2022-08-17T10:31:45.556Z,12.37
2022-08-17T10:34:45.721Z,11.53
2022-08-17T10:37:33.926Z,13.37
2022-08-17T10:40:47.144Z,11.87
2022-08-17T10:43:37.278Z,12.83
2022-08-17T10:46:30.831Z,13.87
2022-08-17T10:49:21.598Z,12.80
2022-08-17T10:51:58.803Z,12.00
2022-08-17T10:54:41.091Z,12.03
2022-08-17T10:57:46.774Z,11.97
2022-08-17T11:00:18.872Z,14.03
2022-08-17T11:02:53.314Z,12.17
2022-08-17T11:05:34.566Z,10.80
2022-08-17T11:08:40.749Z,11.13
2022-08-17T11:11:34.540Z,10.23
2022-08-17T11:14:11.142Z,12.70
2022-08-17T11:16:53.411Z,11.70
2022-08-17T11:20:06.908Z,11.33
2022-08-17T11:22:47.800Z,10.53
2022-08-17T11:25:22.662Z,11.47
2022-08-17T11:28:06.891Z,12.00
2022-08-17T11:30:41.759Z,13.13
2022-08-17T11:33:36.720Z,12.97
2022-08-17T11:36:18.345Z,10.97
2022-08-17T11:38:57.947Z,11.30
2022-08-17T11:41:48.910Z,10.40
2022-08-17T11:44:37.851Z,11.67
2022-08-17T11:48:23.852Z,11.50
2022-08-17T11:51:12.745Z,11.33
2022-08-17T11:53:45.807Z,13.40
2022-08-17T11:56:35.013Z,13.67
2022-08-17T11:59:36.470Z,12.97
2022-08-17T12:02:32.907Z,12.77
2022-08-17T12:05:26.094Z,12.23
2022-08-17T12:08:12.439Z,11.63
2022-08-17T12:11:01.077Z,10.93
2022-08-17T12:13:43.956Z,13.20
2022-08-17T12:16:17.562Z,10.83
2022-08-17T12:19:02.503Z,12.03
2022-08-17T12:21:48.881Z,12.40
2022-08-17T12:24:39.481Z,11.23
2022-08-17T12:27:13.254Z,13.57
2022-08-17T12:29:45.702Z,12.77
2022-08-17T12:32:20.245Z,11.67
2022-08-17T12:34:52.529Z,11.00
2022-08-17T12:37:32.293Z,12.70
2022-08-17T12:40:17.987Z,10.30
2022-08-17T12:43:05.329Z,10.40
2022-08-17T12:45:42.101Z,11.50
2022-08-17T12:48:23.003Z,11.43
2022-08-17T12:51:02.904Z,10.63
2022-08-17T12:53:38.456Z,11.10
2022-08-17T12:56:12.164Z,11.27
2022-08-17T12:58:54.150Z,9.90
2022-08-17T13:01:26.264Z,11.17
2022-08-17T13:04:00.201Z,10.70
2022-08-17T13:06:34.781Z,11.20
2022-08-17T13:09:21.390Z,10.80
2022-08-17T13:11:59.562Z,12.13
2022-08-17T13:14:31.641Z,10.53
2022-08-17T13:17:09.886Z,10.53
2022-08-17T13:19:49.880Z,10.63
2022-08-17T13:22:25.979Z,10.40
2022-08-17T13:25:08.457Z,11.20
2022-08-17T13:27:42.281Z,11.37
2022-08-17T13:30:23.417Z,11.73
2022-08-17T13:32:57.258Z,10.53
2022-08-17T13:35:44.160Z,11.20
2022-08-17T13:38:47.074Z,11.17
2022-08-17T13:41:34.987Z,11.60
2022-08-17T13:44:37.173Z,10.80
2022-08-17T13:47:18.647Z,11.47
2022-08-17T13:49:51.224Z,11.00
2022-08-17T13:52:45.146Z,11.73
2022-08-17T13:55:22.092Z,9.87
2022-08-17T13:58:00.925Z,11.03
2022-08-17T14:00:39.567Z,10.10
2022-08-17T14:03:12.175Z,10.43
2022-08-17T14:05:46.070Z,10.97
2022-08-17T14:08:20.173Z,10.80
2022-08-17T14:10:58.183Z,10.00
2022-08-17T14:13:30.227Z,9.97
2022-08-17T14:16:02.308Z,8.90
2022-08-17T14:18:55.644Z,10.63
2022-08-17T14:21:26.439Z,10.23
2022-08-17T14:23:58.529Z,10.90
2022-08-17T14:26:30.852Z,10.97
2022-08-17T14:29:02.946Z,10.30
2022-08-17T14:31:37.543Z,10.53
2022-08-17T14:34:10.746Z,10.73
2022-08-17T14:36:45.514Z,9.80
2022-08-17T14:39:20.936Z,10.27
2022-08-17T14:41:53.244Z,9.93
2022-08-17T14:44:25.233Z,11.70
2022-08-17T14:46:57.300Z,10.57
2022-08-17T14:49:30.206Z,10.10
2022-08-17T14:52:02.293Z,10.53
2022-08-17T14:54:34.736Z,15.70
2022-08-17T14:57:33.223Z,12.20
2022-08-17T15:00:00.210Z,11.50
2022-08-17T15:02:44.377Z,10.90
2022-08-17T15:05:17.425Z,10.00
2022-08-17T15:07:49.803Z,10.60
2022-08-17T15:10:22.198Z,10.70
2022-08-17T15:12:54.493Z,13.40
2022-08-17T15:15:27.210Z,13.13
2022-08-17T15:18:00.065Z,12.50
2022-08-17T15:20:33.224Z,11.43
2022-08-17T15:23:06.972Z,11.20
2022-08-17T15:25:39.001Z,11.37
2022-08-17T15:28:12.149Z,10.93
2022-08-17T15:30:45.131Z,13.83
2022-08-17T15:33:23.979Z,13.23
2022-08-17T15:36:01.654Z,12.97
2022-08-17T15:38:36.750Z,12.17
2022-08-17T15:41:13.667Z,13.07
2022-08-17T15:43:47.565Z,13.10
2022-08-17T15:46:22.093Z,12.83
2022-08-17T15:48:58.876Z,23.10
2022-08-17T15:51:32.871Z,14.33
2022-08-17T15:54:19.046Z,17.37
2022-08-17T15:56:54.207Z,15.93
2022-08-17T15:59:27.104Z,13.90
2022-08-17T16:03:15.300Z,16.13
2022-08-17T16:04:53.318Z,15.10
2022-08-17T16:07:26.959Z,15.20
2022-08-17T16:09:59.086Z,15.60
2022-08-17T16:12:31.289Z,15.40
2022-08-17T16:15:05.334Z,15.90
2022-08-17T16:17:39.802Z,14.77
2022-08-17T16:20:20.223Z,15.43
2022-08-17T16:22:54.523Z,14.87
2022-08-17T16:25:50.328Z,14.00
2022-08-17T16:28:29.877Z,14.07
2022-08-17T16:31:09.365Z,14.10
2022-08-17T16:33:41.769Z,16.27
2022-08-17T16:36:13.703Z,15.87
2022-08-17T16:38:46.721Z,14.57
2022-08-17T16:41:38.801Z,13.43
2022-08-17T16:44:21.437Z,13.23
2022-08-17T16:46:53.700Z,13.07
2022-08-17T16:49:36.929Z,13.57
2022-08-17T16:52:10.712Z,12.47
2022-08-17T16:54:44.506Z,14.57
2022-08-17T16:57:17.574Z,13.53
2022-08-17T16:59:51.498Z,14.03
2022-08-17T17:02:32.092Z,12.70
2022-08-17T17:05:13.090Z,12.50
2022-08-17T17:07:55.665Z,12.17
2022-08-17T17:10:40.715Z,12.97
2022-08-17T17:13:21.560Z,12.80
2022-08-17T17:16:12.404Z,14.07
2022-08-17T17:19:07.968Z,12.70
2022-08-17T17:22:12.219Z,12.87
2022-08-17T17:25:10.922Z,13.67
2022-08-17T17:27:43.245Z,11.50
2022-08-17T17:30:27.718Z,12.67
2022-08-17T17:33:06.895Z,12.40
2022-08-17T17:35:57.571Z,12.77
2022-08-17T17:38:34.291Z,12.27
2022-08-17T17:41:13.565Z,12.13
2022-08-17T17:43:49.421Z,11.63
2022-08-17T17:46:29.092Z,12.20
2022-08-17T17:49:01.442Z,12.10
2022-08-17T17:52:06.745Z,12.47
2022-08-17T17:54:56.539Z,13.00
2022-08-17T17:57:54.533Z,11.93
2022-08-17T18:00:35.499Z,13.50
2022-08-17T18:03:34.724Z,11.90
2022-08-17T18:06:08.108Z,12.17
2022-08-17T18:08:52.805Z,11.10
2022-08-17T18:11:44.202Z,11.70
2022-08-17T18:14:40.135Z,12.27
2022-08-17T18:17:12.623Z,12.63
2022-08-17T18:19:47.054Z,13.47
2022-08-17T18:22:21.825Z,13.43
2022-08-17T18:24:58.766Z,8.80
2022-08-17T18:27:37.521Z,8.37
2022-08-17T18:30:12.270Z,7.43
2022-08-17T18:32:46.544Z,5.77
2022-08-17T18:35:18.534Z,5.13
2022-08-17T18:37:53.860Z,5.80
2022-08-17T18:40:35.745Z,5.43
2022-08-17T18:43:14.225Z,5.80
2022-08-17T18:45:48.902Z,7.47
2022-08-17T18:48:20.892Z,9.10
2022-08-17T18:50:58.351Z,10.63
2022-08-17T18:53:41.133Z,11.07
2022-08-17T18:56:16.061Z,10.63
2022-08-17T18:59:12.540Z,12.03
2022-08-17T19:02:21.627Z,12.40
2022-08-17T19:05:10.035Z,11.13
2022-08-17T19:07:46.940Z,11.60
2022-08-17T19:10:26.023Z,10.73
2022-08-17T19:13:12.621Z,12.23
2022-08-17T19:16:14.001Z,11.60
2022-08-17T19:18:58.650Z,11.60
2022-08-17T19:21:36.317Z,9.00
2022-08-17T19:24:13.072Z,9.70
2022-08-17T19:26:57.656Z,9.27
2022-08-17T19:29:54.394Z,10.03
2022-08-17T19:32:29.916Z,11.43
2022-08-17T19:35:03.231Z,8.97
2022-08-17T19:37:54.752Z,9.40
2022-08-17T19:40:58.812Z,10.37
2022-08-17T19:44:13.771Z,9.30
2022-08-17T19:47:17.227Z,9.90
2022-08-17T19:50:41.690Z,9.67
2022-08-17T19:54:03.744Z,9.80
2022-08-17T19:56:49.129Z,9.50
2022-08-17T19:59:48.983Z,9.07
2022-08-17T20:02:29.037Z,9.53
2022-08-17T20:05:25.648Z,9.67
2022-08-17T20:08:14.757Z,9.60
2022-08-17T20:10:54.838Z,11.40
2022-08-17T20:13:33.975Z,10.90
2022-08-17T20:16:07.073Z,11.20
2022-08-17T20:18:52.466Z,11.17
2022-08-17T20:21:46.422Z,10.90
2022-08-17T20:24:28.578Z,11.53
2022-08-17T20:27:16.621Z,11.07
2022-08-17T20:30:13.049Z,11.33
2022-08-17T20:32:56.675Z,10.80
2022-08-17T20:35:39.110Z,9.80
2022-08-17T20:38:33.336Z,12.67
2022-08-17T20:41:11.821Z,9.33
2022-08-17T20:44:05.277Z,9.37
2022-08-17T20:46:37.920Z,9.47
2022-08-17T20:49:41.364Z,9.60
2022-08-17T20:52:17.725Z,9.73
2022-08-17T20:54:55.884Z,9.10
2022-08-17T20:57:33.459Z,8.80
2022-08-17T21:00:25.253Z,9.00
2022-08-17T21:03:21.982Z,9.00
2022-08-17T21:05:59.895Z,9.20
2022-08-17T21:08:41.329Z,8.70
2022-08-17T21:11:58.247Z,8.60
2022-08-17T21:14:59.725Z,7.63
2022-08-17T21:17:50.334Z,8.43
2022-08-17T21:21:03.734Z,7.87
2022-08-17T21:23:49.593Z,8.00
2022-08-17T21:26:38.924Z,9.57
2022-08-17T21:29:31.256Z,8.30
2022-08-17T21:32:05.250Z,8.47
2022-08-17T21:34:43.693Z,8.03
2022-08-17T21:37:38.140Z,7.40
2022-08-17T21:40:10.739Z,7.70
2022-08-17T21:42:50.578Z,7.30
2022-08-17T21:45:29.697Z,9.40
2022-08-17T21:48:15.005Z,7.20
2022-08-17T21:50:57.516Z,7.90
2022-08-17T21:53:44.686Z,7.37
2022-08-17T21:56:28.322Z,6.83
2022-08-17T21:59:06.572Z,7.10
2022-08-17T22:01:41.398Z,7.50
2022-08-17T22:04:33.627Z,7.23
2022-08-17T22:07:11.399Z,7.87
2022-08-17T22:09:48.115Z,7.53
2022-08-17T22:12:22.166Z,7.60
2022-08-17T22:15:04.111Z,8.17
2022-08-17T22:17:46.297Z,7.97
2022-08-17T22:20:20.010Z,7.00
2022-08-17T22:23:13.270Z,7.23
2022-08-17T22:26:03.981Z,7.60
2022-08-17T22:28:49.453Z,7.53
2022-08-17T22:31:24.630Z,7.80
2022-08-17T22:34:02.215Z,7.10
2022-08-17T22:36:35.120Z,8.00
2022-08-17T22:39:08.298Z,7.60
2022-08-17T22:42:00.181Z,6.83
2022-08-17T22:44:38.449Z,7.37
2022-08-17T22:47:19.062Z,7.63
2022-08-17T22:49:54.698Z,6.77
2022-08-17T22:52:58.683Z,6.63
2022-08-17T22:55:50.437Z,5.60
2022-08-17T22:58:42.689Z,6.37
2022-08-17T23:01:27.775Z,5.70
2022-08-17T23:04:05.935Z,6.57
2022-08-17T23:06:40.206Z,5.93
2022-08-17T23:09:12.188Z,5.50
2022-08-17T23:11:50.025Z,6.27
2022-08-17T23:14:22.581Z,5.50
2022-08-17T23:16:54.619Z,5.47
2022-08-17T23:19:28.356Z,6.27
2022-08-17T23:22:04.150Z,5.70
2022-08-17T23:24:42.364Z,5.97
2022-08-17T23:27:14.479Z,5.80
2022-08-17T23:29:47.146Z,5.20
2022-08-17T23:32:19.247Z,5.00
2022-08-17T23:34:51.243Z,5.50
2022-08-17T23:37:23.199Z,4.80
2022-08-17T23:39:55.383Z,5.50
2022-08-17T23:42:28.614Z,5.40
2022-08-17T23:45:01.225Z,4.60
2022-08-17T23:47:33.149Z,5.50
2022-08-17T23:50:05.737Z,5.30
2022-08-17T23:52:37.870Z,5.07
2022-08-17T23:55:10.433Z,4.93
2022-08-17T23:57:42.816Z,4.90
